sensor_id;sensor_type;location;lat;lon;timestamp;P1;durP1;ratioP1;P2;durP2;ratioP2
11533;SDS011;5823;50.588;8.462;2023-03-19T00:00:00;0.40;;;0.40;;
11533;SDS011;5823;50.588;8.462;2023-03-19T00:02:26;0.50;;;0.47;;
11533;SDS011;5823;50.588;8.462;2023-03-19T00:04:53;0.55;;;0.55;;
11533;SDS011;5823;50.588;8.462;2023-03-19T00:07:19;0.80;;;0.80;;
11533;SDS011;5823;50.588;8.462;2023-03-19T00:09:48;0.57;;;0.57;;
11533;SDS011;5823;50.588;8.462;2023-03-19T00:12:14;0.35;;;0.35;;
11533;SDS011;5823;50.588;8.462;2023-03-19T00:14:41;0.73;;;0.65;;
11533;SDS011;5823;50.588;8.462;2023-03-19T00:17:07;0.50;;;0.50;;
11533;SDS011;5823;50.588;8.462;2023-03-19T00:19:33;0.60;;;0.60;;
11533;SDS011;5823;50.588;8.462;2023-03-19T00:21:59;0.47;;;0.47;;
11533;SDS011;5823;50.588;8.462;2023-03-19T00:24:26;0.60;;;0.60;;
11533;SDS011;5823;50.588;8.462;2023-03-19T00:26:54;0.40;;;0.40;;
11533;SDS011;5823;50.588;8.462;2023-03-19T00:29:20;0.52;;;0.52;;
11533;SDS011;5823;50.588;8.462;2023-03-19T00:31:47;0.70;;;0.70;;
11533;SDS011;5823;50.588;8.462;2023-03-19T00:34:13;0.52;;;0.52;;
11533;SDS011;5823;50.588;8.462;2023-03-19T00:36:42;0.45;;;0.45;;
11533;SDS011;5823;50.588;8.462;2023-03-19T00:39:08;0.30;;;0.30;;
11533;SDS011;5823;50.588;8.462;2023-03-19T00:41:34;0.43;;;0.43;;
11533;SDS011;5823;50.588;8.462;2023-03-19T00:44:02;0.52;;;0.52;;
11533;SDS011;5823;50.588;8.462;2023-03-19T00:46:28;0.57;;;0.57;;
11533;SDS011;5823;50.588;8.462;2023-03-19T00:48:55;0.68;;;0.68;;
11533;SDS011;5823;50.588;8.462;2023-03-19T00:51:22;0.68;;;0.60;;
11533;SDS011;5823;50.588;8.462;2023-03-19T00:53:49;0.55;;;0.47;;
11533;SDS011;5823;50.588;8.462;2023-03-19T00:56:16;0.60;;;0.60;;
11533;SDS011;5823;50.588;8.462;2023-03-19T00:58:43;0.73;;;0.55;;
11533;SDS011;5823;50.588;8.462;2023-03-19T01:01:11;0.40;;;0.40;;
11533;SDS011;5823;50.588;8.462;2023-03-19T01:03:38;0.40;;;0.40;;
11533;SDS011;5823;50.588;8.462;2023-03-19T01:06:05;0.60;;;0.60;;
11533;SDS011;5823;50.588;8.462;2023-03-19T01:08:31;0.50;;;0.50;;
11533;SDS011;5823;50.588;8.462;2023-03-19T01:11:03;0.90;;;0.90;;
11533;SDS011;5823;50.588;8.462;2023-03-19T01:13:29;0.70;;;0.70;;
11533;SDS011;5823;50.588;8.462;2023-03-19T01:15:56;0.75;;;0.75;;
11533;SDS011;5823;50.588;8.462;2023-03-19T01:18:23;0.40;;;0.40;;
11533;SDS011;5823;50.588;8.462;2023-03-19T01:20:50;0.40;;;0.40;;
11533;SDS011;5823;50.588;8.462;2023-03-19T01:23:16;0.45;;;0.45;;
11533;SDS011;5823;50.588;8.462;2023-03-19T01:25:42;0.65;;;0.63;;
11533;SDS011;5823;50.588;8.462;2023-03-19T01:28:08;0.63;;;0.55;;
11533;SDS011;5823;50.588;8.462;2023-03-19T01:30:34;0.50;;;0.50;;
11533;SDS011;5823;50.588;8.462;2023-03-19T01:33:01;0.65;;;0.50;;
11533;SDS011;5823;50.588;8.462;2023-03-19T01:35:28;0.70;;;0.70;;
11533;SDS011;5823;50.588;8.462;2023-03-19T01:37:55;0.70;;;0.70;;
11533;SDS011;5823;50.588;8.462;2023-03-19T01:40:21;0.73;;;0.73;;
11533;SDS011;5823;50.588;8.462;2023-03-19T01:42:51;0.85;;;0.85;;
11533;SDS011;5823;50.588;8.462;2023-03-19T01:45:31;0.70;;;0.70;;
11533;SDS011;5823;50.588;8.462;2023-03-19T01:47:57;0.38;;;0.38;;
11533;SDS011;5823;50.588;8.462;2023-03-19T01:50:24;0.60;;;0.60;;
11533;SDS011;5823;50.588;8.462;2023-03-19T01:52:53;0.30;;;0.30;;
11533;SDS011;5823;50.588;8.462;2023-03-19T01:55:19;0.20;;;0.20;;
11533;SDS011;5823;50.588;8.462;2023-03-19T01:57:46;0.30;;;0.30;;
11533;SDS011;5823;50.588;8.462;2023-03-19T02:00:12;0.40;;;0.40;;
11533;SDS011;5823;50.588;8.462;2023-03-19T02:02:40;0.50;;;0.50;;
11533;SDS011;5823;50.588;8.462;2023-03-19T02:05:07;0.60;;;0.60;;
11533;SDS011;5823;50.588;8.462;2023-03-19T02:07:35;0.52;;;0.52;;
11533;SDS011;5823;50.588;8.462;2023-03-19T02:10:04;0.45;;;0.45;;
11533;SDS011;5823;50.588;8.462;2023-03-19T02:12:32;0.50;;;0.50;;
11533;SDS011;5823;50.588;8.462;2023-03-19T02:14:58;0.63;;;0.63;;
11533;SDS011;5823;50.588;8.462;2023-03-19T02:17:25;0.82;;;0.60;;
11533;SDS011;5823;50.588;8.462;2023-03-19T02:19:53;0.77;;;0.77;;
11533;SDS011;5823;50.588;8.462;2023-03-19T02:22:23;0.70;;;0.70;;
11533;SDS011;5823;50.588;8.462;2023-03-19T02:24:52;0.70;;;0.70;;
11533;SDS011;5823;50.588;8.462;2023-03-19T02:27:20;0.75;;;0.73;;
11533;SDS011;5823;50.588;8.462;2023-03-19T02:29:46;0.52;;;0.52;;
11533;SDS011;5823;50.588;8.462;2023-03-19T02:32:12;0.35;;;0.35;;
11533;SDS011;5823;50.588;8.462;2023-03-19T02:34:39;0.52;;;0.52;;
11533;SDS011;5823;50.588;8.462;2023-03-19T02:37:07;0.60;;;0.60;;
11533;SDS011;5823;50.588;8.462;2023-03-19T02:39:36;0.55;;;0.50;;
11533;SDS011;5823;50.588;8.462;2023-03-19T02:42:03;0.60;;;0.60;;
11533;SDS011;5823;50.588;8.462;2023-03-19T02:44:31;0.70;;;0.70;;
11533;SDS011;5823;50.588;8.462;2023-03-19T02:46:58;0.60;;;0.60;;
11533;SDS011;5823;50.588;8.462;2023-03-19T02:49:24;0.38;;;0.38;;
11533;SDS011;5823;50.588;8.462;2023-03-19T02:51:51;0.85;;;0.80;;
11533;SDS011;5823;50.588;8.462;2023-03-19T02:54:17;0.90;;;0.80;;
11533;SDS011;5823;50.588;8.462;2023-03-19T02:56:43;0.73;;;0.70;;
11533;SDS011;5823;50.588;8.462;2023-03-19T02:59:10;0.45;;;0.45;;
11533;SDS011;5823;50.588;8.462;2023-03-19T03:01:37;0.70;;;0.38;;
11533;SDS011;5823;50.588;8.462;2023-03-19T03:04:04;0.65;;;0.65;;
11533;SDS011;5823;50.588;8.462;2023-03-19T03:06:30;0.90;;;0.75;;
11533;SDS011;5823;50.588;8.462;2023-03-19T03:08:56;0.52;;;0.50;;
11533;SDS011;5823;50.588;8.462;2023-03-19T03:11:22;0.30;;;0.30;;
11533;SDS011;5823;50.588;8.462;2023-03-19T03:13:49;0.90;;;0.80;;
11533;SDS011;5823;50.588;8.462;2023-03-19T03:16:15;0.40;;;0.40;;
11533;SDS011;5823;50.588;8.462;2023-03-19T03:18:42;0.50;;;0.40;;
11533;SDS011;5823;50.588;8.462;2023-03-19T03:21:09;0.43;;;0.43;;
11533;SDS011;5823;50.588;8.462;2023-03-19T03:23:35;0.80;;;0.75;;
11533;SDS011;5823;50.588;8.462;2023-03-19T03:26:02;0.45;;;0.45;;
11533;SDS011;5823;50.588;8.462;2023-03-19T03:28:28;0.45;;;0.45;;
11533;SDS011;5823;50.588;8.462;2023-03-19T03:30:57;0.38;;;0.38;;
11533;SDS011;5823;50.588;8.462;2023-03-19T03:33:23;0.52;;;0.47;;
11533;SDS011;5823;50.588;8.462;2023-03-19T03:35:50;0.40;;;0.40;;
11533;SDS011;5823;50.588;8.462;2023-03-19T03:38:17;0.40;;;0.40;;
11533;SDS011;5823;50.588;8.462;2023-03-19T03:40:43;0.60;;;0.60;;
11533;SDS011;5823;50.588;8.462;2023-03-19T03:43:09;0.60;;;0.60;;
11533;SDS011;5823;50.588;8.462;2023-03-19T03:45:35;0.55;;;0.50;;
11533;SDS011;5823;50.588;8.462;2023-03-19T03:48:02;0.50;;;0.50;;
11533;SDS011;5823;50.588;8.462;2023-03-19T03:50:28;0.73;;;0.73;;
11533;SDS011;5823;50.588;8.462;2023-03-19T03:52:56;0.70;;;0.70;;
11533;SDS011;5823;50.588;8.462;2023-03-19T03:55:22;0.65;;;0.65;;
11533;SDS011;5823;50.588;8.462;2023-03-19T03:57:48;0.60;;;0.60;;
11533;SDS011;5823;50.588;8.462;2023-03-19T04:00:14;0.80;;;0.77;;
11533;SDS011;5823;50.588;8.462;2023-03-19T04:02:41;0.47;;;0.47;;
11533;SDS011;5823;50.588;8.462;2023-03-19T04:05:07;0.90;;;0.80;;
11533;SDS011;5823;50.588;8.462;2023-03-19T04:07:33;0.55;;;0.55;;
11533;SDS011;5823;50.588;8.462;2023-03-19T04:10:01;0.65;;;0.65;;
11533;SDS011;5823;50.588;8.462;2023-03-19T04:12:27;0.40;;;0.40;;
11533;SDS011;5823;50.588;8.462;2023-03-19T04:14:53;0.60;;;0.50;;
11533;SDS011;5823;50.588;8.462;2023-03-19T04:17:20;0.70;;;0.70;;
11533;SDS011;5823;50.588;8.462;2023-03-19T04:19:46;0.50;;;0.50;;
11533;SDS011;5823;50.588;8.462;2023-03-19T04:22:12;0.30;;;0.30;;
11533;SDS011;5823;50.588;8.462;2023-03-19T04:24:39;0.50;;;0.50;;
11533;SDS011;5823;50.588;8.462;2023-03-19T04:27:07;0.50;;;0.40;;
11533;SDS011;5823;50.588;8.462;2023-03-19T04:29:33;0.50;;;0.50;;
11533;SDS011;5823;50.588;8.462;2023-03-19T04:32:00;0.45;;;0.40;;
11533;SDS011;5823;50.588;8.462;2023-03-19T04:34:26;0.30;;;0.28;;
11533;SDS011;5823;50.588;8.462;2023-03-19T04:36:52;0.20;;;0.20;;
11533;SDS011;5823;50.588;8.462;2023-03-19T04:39:18;0.30;;;0.30;;
11533;SDS011;5823;50.588;8.462;2023-03-19T04:41:45;0.40;;;0.40;;
11533;SDS011;5823;50.588;8.462;2023-03-19T04:44:12;0.60;;;0.50;;
11533;SDS011;5823;50.588;8.462;2023-03-19T04:46:38;0.47;;;0.47;;
11533;SDS011;5823;50.588;8.462;2023-03-19T04:49:04;0.55;;;0.55;;
11533;SDS011;5823;50.588;8.462;2023-03-19T04:51:31;0.40;;;0.40;;
11533;SDS011;5823;50.588;8.462;2023-03-19T04:53:57;0.52;;;0.50;;
11533;SDS011;5823;50.588;8.462;2023-03-19T04:56:23;0.40;;;0.40;;
11533;SDS011;5823;50.588;8.462;2023-03-19T04:58:50;0.43;;;0.43;;
11533;SDS011;5823;50.588;8.462;2023-03-19T05:01:18;0.20;;;0.20;;
11533;SDS011;5823;50.588;8.462;2023-03-19T05:03:44;0.30;;;0.30;;
11533;SDS011;5823;50.588;8.462;2023-03-19T05:06:11;0.28;;;0.28;;
11533;SDS011;5823;50.588;8.462;2023-03-19T05:08:37;0.20;;;0.20;;
11533;SDS011;5823;50.588;8.462;2023-03-19T05:11:03;0.40;;;0.40;;
11533;SDS011;5823;50.588;8.462;2023-03-19T05:13:30;0.45;;;0.45;;
11533;SDS011;5823;50.588;8.462;2023-03-19T05:15:56;0.30;;;0.30;;
11533;SDS011;5823;50.588;8.462;2023-03-19T05:18:23;0.38;;;0.38;;
11533;SDS011;5823;50.588;8.462;2023-03-19T05:20:50;0.43;;;0.43;;
11533;SDS011;5823;50.588;8.462;2023-03-19T05:23:16;0.50;;;0.50;;
11533;SDS011;5823;50.588;8.462;2023-03-19T05:25:42;0.43;;;0.43;;
11533;SDS011;5823;50.588;8.462;2023-03-19T05:28:09;0.38;;;0.38;;
11533;SDS011;5823;50.588;8.462;2023-03-19T05:30:35;0.47;;;0.47;;
11533;SDS011;5823;50.588;8.462;2023-03-19T05:33:01;0.40;;;0.40;;
11533;SDS011;5823;50.588;8.462;2023-03-19T05:35:29;0.30;;;0.30;;
11533;SDS011;5823;50.588;8.462;2023-03-19T05:37:55;0.20;;;0.20;;
11533;SDS011;5823;50.588;8.462;2023-03-19T05:40:22;0.45;;;0.40;;
11533;SDS011;5823;50.588;8.462;2023-03-19T05:42:48;0.47;;;0.47;;
11533;SDS011;5823;50.588;8.462;2023-03-19T05:45:14;0.50;;;0.50;;
11533;SDS011;5823;50.588;8.462;2023-03-19T05:47:41;0.50;;;0.50;;
11533;SDS011;5823;50.588;8.462;2023-03-19T05:50:08;0.32;;;0.32;;
11533;SDS011;5823;50.588;8.462;2023-03-19T05:52:36;0.40;;;0.40;;
11533;SDS011;5823;50.588;8.462;2023-03-19T05:55:03;0.40;;;0.40;;
11533;SDS011;5823;50.588;8.462;2023-03-19T05:57:29;0.30;;;0.30;;
11533;SDS011;5823;50.588;8.462;2023-03-19T05:59:56;0.30;;;0.30;;
11533;SDS011;5823;50.588;8.462;2023-03-19T06:02:22;0.40;;;0.40;;
11533;SDS011;5823;50.588;8.462;2023-03-19T06:04:48;0.32;;;0.32;;
11533;SDS011;5823;50.588;8.462;2023-03-19T06:07:15;0.20;;;0.20;;
11533;SDS011;5823;50.588;8.462;2023-03-19T06:09:42;0.43;;;0.43;;
11533;SDS011;5823;50.588;8.462;2023-03-19T06:12:09;0.32;;;0.32;;
11533;SDS011;5823;50.588;8.462;2023-03-19T06:14:35;0.30;;;0.30;;
11533;SDS011;5823;50.588;8.462;2023-03-19T06:17:01;0.35;;;0.35;;
11533;SDS011;5823;50.588;8.462;2023-03-19T06:19:28;0.25;;;0.25;;
11533;SDS011;5823;50.588;8.462;2023-03-19T06:21:54;0.50;;;0.43;;
11533;SDS011;5823;50.588;8.462;2023-03-19T06:24:20;0.40;;;0.30;;
11533;SDS011;5823;50.588;8.462;2023-03-19T06:26:48;0.10;;;0.10;;
11533;SDS011;5823;50.588;8.462;2023-03-19T06:29:14;0.25;;;0.25;;
11533;SDS011;5823;50.588;8.462;2023-03-19T06:31:40;0.20;;;0.20;;
11533;SDS011;5823;50.588;8.462;2023-03-19T06:34:07;0.30;;;0.30;;
11533;SDS011;5823;50.588;8.462;2023-03-19T06:36:33;0.30;;;0.30;;
11533;SDS011;5823;50.588;8.462;2023-03-19T06:38:59;0.20;;;0.20;;
11533;SDS011;5823;50.588;8.462;2023-03-19T06:41:27;0.32;;;0.30;;
11533;SDS011;5823;50.588;8.462;2023-03-19T06:43:54;0.20;;;0.20;;
11533;SDS011;5823;50.588;8.462;2023-03-19T06:46:20;0.30;;;0.30;;
11533;SDS011;5823;50.588;8.462;2023-03-19T06:48:47;0.13;;;0.13;;
11533;SDS011;5823;50.588;8.462;2023-03-19T06:51:13;0.40;;;0.40;;
11533;SDS011;5823;50.588;8.462;2023-03-19T06:53:39;0.40;;;0.40;;
11533;SDS011;5823;50.588;8.462;2023-03-19T06:56:06;0.40;;;0.40;;
11533;SDS011;5823;50.588;8.462;2023-03-19T06:58:32;0.30;;;0.30;;
11533;SDS011;5823;50.588;8.462;2023-03-19T07:01:01;0.20;;;0.20;;
11533;SDS011;5823;50.588;8.462;2023-03-19T07:03:27;0.20;;;0.20;;
11533;SDS011;5823;50.588;8.462;2023-03-19T07:05:53;0.40;;;0.40;;
11533;SDS011;5823;50.588;8.462;2023-03-19T07:08:19;0.30;;;0.30;;
11533;SDS011;5823;50.588;8.462;2023-03-19T07:10:46;0.17;;;0.17;;
11533;SDS011;5823;50.588;8.462;2023-03-19T07:13:12;0.28;;;0.28;;
11533;SDS011;5823;50.588;8.462;2023-03-19T07:15:38;0.20;;;0.20;;
11533;SDS011;5823;50.588;8.462;2023-03-19T07:18:06;0.30;;;0.30;;
11533;SDS011;5823;50.588;8.462;2023-03-19T07:20:32;0.20;;;0.20;;
11533;SDS011;5823;50.588;8.462;2023-03-19T07:22:59;0.30;;;0.30;;
11533;SDS011;5823;50.588;8.462;2023-03-19T07:25:25;0.45;;;0.45;;
11533;SDS011;5823;50.588;8.462;2023-03-19T07:27:51;0.15;;;0.15;;
11533;SDS011;5823;50.588;8.462;2023-03-19T07:30:17;0.30;;;0.30;;
11533;SDS011;5823;50.588;8.462;2023-03-19T07:32:44;0.30;;;0.30;;
11533;SDS011;5823;50.588;8.462;2023-03-19T07:35:12;0.43;;;0.40;;
11533;SDS011;5823;50.588;8.462;2023-03-19T07:37:38;0.28;;;0.28;;
11533;SDS011;5823;50.588;8.462;2023-03-19T07:40:05;0.30;;;0.30;;
11533;SDS011;5823;50.588;8.462;2023-03-19T07:42:31;0.30;;;0.30;;
11533;SDS011;5823;50.588;8.462;2023-03-19T07:44:58;0.28;;;0.28;;
11533;SDS011;5823;50.588;8.462;2023-03-19T07:47:26;0.30;;;0.30;;
11533;SDS011;5823;50.588;8.462;2023-03-19T07:49:52;0.30;;;0.30;;
11533;SDS011;5823;50.588;8.462;2023-03-19T07:52:20;0.43;;;0.43;;
11533;SDS011;5823;50.588;8.462;2023-03-19T07:54:46;0.45;;;0.45;;
11533;SDS011;5823;50.588;8.462;2023-03-19T07:57:14;0.28;;;0.28;;
11533;SDS011;5823;50.588;8.462;2023-03-19T07:59:40;0.30;;;0.30;;
11533;SDS011;5823;50.588;8.462;2023-03-19T08:02:07;0.38;;;0.38;;
11533;SDS011;5823;50.588;8.462;2023-03-19T08:04:35;0.25;;;0.25;;
11533;SDS011;5823;50.588;8.462;2023-03-19T08:07:01;0.47;;;0.47;;
11533;SDS011;5823;50.588;8.462;2023-03-19T08:09:29;0.50;;;0.40;;
11533;SDS011;5823;50.588;8.462;2023-03-19T08:11:56;0.40;;;0.40;;
11533;SDS011;5823;50.588;8.462;2023-03-19T08:14:22;0.20;;;0.20;;
11533;SDS011;5823;50.588;8.462;2023-03-19T08:16:48;0.35;;;0.35;;
11533;SDS011;5823;50.588;8.462;2023-03-19T08:19:14;0.30;;;0.30;;
11533;SDS011;5823;50.588;8.462;2023-03-19T08:21:42;0.43;;;0.43;;
11533;SDS011;5823;50.588;8.462;2023-03-19T08:24:08;0.38;;;0.38;;
11533;SDS011;5823;50.588;8.462;2023-03-19T08:26:36;0.80;;;0.77;;
11533;SDS011;5823;50.588;8.462;2023-03-19T08:29:02;0.73;;;0.73;;
11533;SDS011;5823;50.588;8.462;2023-03-19T08:31:29;0.50;;;0.50;;
11533;SDS011;5823;50.588;8.462;2023-03-19T08:33:55;0.30;;;0.30;;
11533;SDS011;5823;50.588;8.462;2023-03-19T08:36:24;0.50;;;0.50;;
11533;SDS011;5823;50.588;8.462;2023-03-19T08:38:50;0.25;;;0.25;;
11533;SDS011;5823;50.588;8.462;2023-03-19T08:41:18;0.40;;;0.40;;
11533;SDS011;5823;50.588;8.462;2023-03-19T08:43:46;0.45;;;0.45;;
11533;SDS011;5823;50.588;8.462;2023-03-19T08:46:12;0.50;;;0.50;;
11533;SDS011;5823;50.588;8.462;2023-03-19T08:48:38;0.50;;;0.50;;
11533;SDS011;5823;50.588;8.462;2023-03-19T08:51:05;0.40;;;0.40;;
11533;SDS011;5823;50.588;8.462;2023-03-19T08:53:31;0.40;;;0.40;;
11533;SDS011;5823;50.588;8.462;2023-03-19T08:55:58;0.55;;;0.55;;
11533;SDS011;5823;50.588;8.462;2023-03-19T08:58:25;0.45;;;0.45;;
11533;SDS011;5823;50.588;8.462;2023-03-19T09:00:59;0.40;;;0.40;;
11533;SDS011;5823;50.588;8.462;2023-03-19T09:03:25;0.40;;;0.40;;
11533;SDS011;5823;50.588;8.462;2023-03-19T09:05:51;0.40;;;0.40;;
11533;SDS011;5823;50.588;8.462;2023-03-19T09:08:18;0.38;;;0.38;;
11533;SDS011;5823;50.588;8.462;2023-03-19T09:10:44;0.40;;;0.40;;
11533;SDS011;5823;50.588;8.462;2023-03-19T09:13:10;0.50;;;0.50;;
11533;SDS011;5823;50.588;8.462;2023-03-19T09:15:36;0.50;;;0.50;;
11533;SDS011;5823;50.588;8.462;2023-03-19T09:18:04;0.60;;;0.60;;
11533;SDS011;5823;50.588;8.462;2023-03-19T09:20:30;0.57;;;0.57;;
11533;SDS011;5823;50.588;8.462;2023-03-19T09:22:56;0.40;;;0.40;;
11533;SDS011;5823;50.588;8.462;2023-03-19T09:25:23;0.60;;;0.60;;
11533;SDS011;5823;50.588;8.462;2023-03-19T09:27:49;0.60;;;0.60;;
11533;SDS011;5823;50.588;8.462;2023-03-19T09:30:16;0.57;;;0.57;;
11533;SDS011;5823;50.588;8.462;2023-03-19T09:32:42;0.70;;;0.70;;
11533;SDS011;5823;50.588;8.462;2023-03-19T09:35:10;0.73;;;0.73;;
11533;SDS011;5823;50.588;8.462;2023-03-19T09:37:36;0.70;;;0.70;;
11533;SDS011;5823;50.588;8.462;2023-03-19T09:40:03;0.50;;;0.50;;
11533;SDS011;5823;50.588;8.462;2023-03-19T09:42:36;0.60;;;0.60;;
11533;SDS011;5823;50.588;8.462;2023-03-19T09:45:08;0.40;;;0.40;;
11533;SDS011;5823;50.588;8.462;2023-03-19T09:47:37;0.70;;;0.70;;
11533;SDS011;5823;50.588;8.462;2023-03-19T09:50:05;0.50;;;0.50;;
11533;SDS011;5823;50.588;8.462;2023-03-19T09:52:39;0.65;;;0.52;;
11533;SDS011;5823;50.588;8.462;2023-03-19T09:55:10;0.50;;;0.50;;
11533;SDS011;5823;50.588;8.462;2023-03-19T09:57:38;0.60;;;0.60;;
11533;SDS011;5823;50.588;8.462;2023-03-19T10:00:09;0.30;;;0.30;;
11533;SDS011;5823;50.588;8.462;2023-03-19T10:02:42;0.38;;;0.38;;
11533;SDS011;5823;50.588;8.462;2023-03-19T10:05:14;0.45;;;0.45;;
11533;SDS011;5823;50.588;8.462;2023-03-19T10:07:48;0.55;;;0.50;;
11533;SDS011;5823;50.588;8.462;2023-03-19T10:10:25;0.40;;;0.40;;
11533;SDS011;5823;50.588;8.462;2023-03-19T10:12:55;0.55;;;0.55;;
11533;SDS011;5823;50.588;8.462;2023-03-19T10:15:25;0.40;;;0.40;;
11533;SDS011;5823;50.588;8.462;2023-03-19T10:17:56;0.43;;;0.43;;
11533;SDS011;5823;50.588;8.462;2023-03-19T10:20:27;0.80;;;0.80;;
11533;SDS011;5823;50.588;8.462;2023-03-19T10:22:56;0.50;;;0.50;;
11533;SDS011;5823;50.588;8.462;2023-03-19T10:25:25;0.60;;;0.60;;
11533;SDS011;5823;50.588;8.462;2023-03-19T10:27:55;0.68;;;0.68;;
11533;SDS011;5823;50.588;8.462;2023-03-19T10:30:24;0.65;;;0.65;;
11533;SDS011;5823;50.588;8.462;2023-03-19T10:32:51;0.70;;;0.70;;
11533;SDS011;5823;50.588;8.462;2023-03-19T10:35:18;0.70;;;0.70;;
11533;SDS011;5823;50.588;8.462;2023-03-19T10:37:46;0.45;;;0.45;;
11533;SDS011;5823;50.588;8.462;2023-03-19T10:40:18;0.57;;;0.57;;
11533;SDS011;5823;50.588;8.462;2023-03-19T10:42:51;0.45;;;0.45;;
11533;SDS011;5823;50.588;8.462;2023-03-19T10:45:20;0.57;;;0.57;;
11533;SDS011;5823;50.588;8.462;2023-03-19T10:47:50;1.10;;;1.00;;
11533;SDS011;5823;50.588;8.462;2023-03-19T10:50:17;0.70;;;0.70;;
11533;SDS011;5823;50.588;8.462;2023-03-19T10:52:44;0.40;;;0.40;;
11533;SDS011;5823;50.588;8.462;2023-03-19T10:55:17;0.75;;;0.75;;
11533;SDS011;5823;50.588;8.462;2023-03-19T10:57:44;0.35;;;0.35;;
11533;SDS011;5823;50.588;8.462;2023-03-19T11:00:15;0.25;;;0.25;;
11533;SDS011;5823;50.588;8.462;2023-03-19T11:02:44;0.55;;;0.55;;
11533;SDS011;5823;50.588;8.462;2023-03-19T11:05:18;0.40;;;0.40;;
11533;SDS011;5823;50.588;8.462;2023-03-19T11:07:47;0.10;;;0.10;;
11533;SDS011;5823;50.588;8.462;2023-03-19T11:10:14;0.10;;;0.10;;
11533;SDS011;5823;50.588;8.462;2023-03-19T11:12:42;0.20;;;0.20;;
11533;SDS011;5823;50.588;8.462;2023-03-19T11:15:15;0.20;;;0.20;;
11533;SDS011;5823;50.588;8.462;2023-03-19T11:17:44;0.10;;;0.10;;
11533;SDS011;5823;50.588;8.462;2023-03-19T11:20:18;0.10;;;0.10;;
11533;SDS011;5823;50.588;8.462;2023-03-19T11:22:44;0.20;;;0.20;;
11533;SDS011;5823;50.588;8.462;2023-03-19T11:25:13;0.20;;;0.20;;
11533;SDS011;5823;50.588;8.462;2023-03-19T11:27:43;0.10;;;0.10;;
11533;SDS011;5823;50.588;8.462;2023-03-19T11:30:12;0.30;;;0.30;;
11533;SDS011;5823;50.588;8.462;2023-03-19T11:32:48;0.05;;;0.05;;
11533;SDS011;5823;50.588;8.462;2023-03-19T11:35:19;0.10;;;0.10;;
11533;SDS011;5823;50.588;8.462;2023-03-19T11:37:49;0.20;;;0.20;;
11533;SDS011;5823;50.588;8.462;2023-03-19T11:40:19;0.52;;;0.20;;
11533;SDS011;5823;50.588;8.462;2023-03-19T11:42:58;0.00;;;0.00;;
11533;SDS011;5823;50.588;8.462;2023-03-19T11:45:31;0.10;;;0.10;;
11533;SDS011;5823;50.588;8.462;2023-03-19T11:48:03;0.20;;;0.20;;
11533;SDS011;5823;50.588;8.462;2023-03-19T11:50:32;0.00;;;0.00;;
11533;SDS011;5823;50.588;8.462;2023-03-19T11:53:08;0.10;;;0.10;;
11533;SDS011;5823;50.588;8.462;2023-03-19T11:55:37;1.30;;;0.45;;
11533;SDS011;5823;50.588;8.462;2023-03-19T11:58:11;0.10;;;0.10;;
11533;SDS011;5823;50.588;8.462;2023-03-19T12:00:43;0.10;;;0.10;;
11533;SDS011;5823;50.588;8.462;2023-03-19T12:06:02;0.10;;;0.10;;
11533;SDS011;5823;50.588;8.462;2023-03-19T12:08:31;0.20;;;0.20;;
11533;SDS011;5823;50.588;8.462;2023-03-19T12:11:00;0.20;;;0.20;;
11533;SDS011;5823;50.588;8.462;2023-03-19T12:13:36;0.32;;;0.32;;
11533;SDS011;5823;50.588;8.462;2023-03-19T12:16:08;0.20;;;0.20;;
11533;SDS011;5823;50.588;8.462;2023-03-19T12:18:43;0.15;;;0.15;;
11533;SDS011;5823;50.588;8.462;2023-03-19T12:21:13;0.20;;;0.20;;
11533;SDS011;5823;50.588;8.462;2023-03-19T12:23:45;0.20;;;0.15;;
11533;SDS011;5823;50.588;8.462;2023-03-19T12:26:21;0.20;;;0.20;;
11533;SDS011;5823;50.588;8.462;2023-03-19T12:28:51;0.10;;;0.10;;
11533;SDS011;5823;50.588;8.462;2023-03-19T12:31:27;0.13;;;0.13;;
11533;SDS011;5823;50.588;8.462;2023-03-19T12:33:57;0.10;;;0.10;;
11533;SDS011;5823;50.588;8.462;2023-03-19T12:36:27;0.00;;;0.00;;
11533;SDS011;5823;50.588;8.462;2023-03-19T12:38:56;0.10;;;0.10;;
11533;SDS011;5823;50.588;8.462;2023-03-19T12:41:25;0.10;;;0.10;;
11533;SDS011;5823;50.588;8.462;2023-03-19T12:43:54;0.08;;;0.08;;
11533;SDS011;5823;50.588;8.462;2023-03-19T12:46:23;0.10;;;0.10;;
11533;SDS011;5823;50.588;8.462;2023-03-19T12:48:51;0.10;;;0.10;;
11533;SDS011;5823;50.588;8.462;2023-03-19T12:51:19;0.00;;;0.00;;
11533;SDS011;5823;50.588;8.462;2023-03-19T12:53:47;0.03;;;0.03;;
11533;SDS011;5823;50.588;8.462;2023-03-19T12:56:16;0.08;;;0.08;;
11533;SDS011;5823;50.588;8.462;2023-03-19T12:58:46;0.10;;;0.10;;
11533;SDS011;5823;50.588;8.462;2023-03-19T13:01:15;0.20;;;0.20;;
11533;SDS011;5823;50.588;8.462;2023-03-19T13:03:45;0.10;;;0.10;;
11533;SDS011;5823;50.588;8.462;2023-03-19T13:06:16;0.00;;;0.00;;
11533;SDS011;5823;50.588;8.462;2023-03-19T13:08:47;0.00;;;0.00;;
11533;SDS011;5823;50.588;8.462;2023-03-19T13:11:14;0.10;;;0.10;;
11533;SDS011;5823;50.588;8.462;2023-03-19T13:13:44;0.30;;;0.20;;
11533;SDS011;5823;50.588;8.462;2023-03-19T13:16:16;0.00;;;0.00;;
11533;SDS011;5823;50.588;8.462;2023-03-19T13:18:48;0.10;;;0.10;;
11533;SDS011;5823;50.588;8.462;2023-03-19T13:21:20;0.00;;;0.00;;
11533;SDS011;5823;50.588;8.462;2023-03-19T13:23:47;0.10;;;0.10;;
11533;SDS011;5823;50.588;8.462;2023-03-19T13:26:15;0.10;;;0.10;;
11533;SDS011;5823;50.588;8.462;2023-03-19T13:28:52;0.00;;;0.00;;
11533;SDS011;5823;50.588;8.462;2023-03-19T13:31:20;0.20;;;0.20;;
11533;SDS011;5823;50.588;8.462;2023-03-19T13:33:50;0.00;;;0.00;;
11533;SDS011;5823;50.588;8.462;2023-03-19T13:36:18;0.00;;;0.00;;
11533;SDS011;5823;50.588;8.462;2023-03-19T13:38:46;0.00;;;0.00;;
11533;SDS011;5823;50.588;8.462;2023-03-19T13:44:17;0.10;;;0.10;;
11533;SDS011;5823;50.588;8.462;2023-03-19T13:46:50;0.10;;;0.10;;
11533;SDS011;5823;50.588;8.462;2023-03-19T13:49:21;0.03;;;0.03;;
11533;SDS011;5823;50.588;8.462;2023-03-19T13:51:49;0.05;;;0.05;;
11533;SDS011;5823;50.588;8.462;2023-03-19T13:54:16;0.00;;;0.00;;
11533;SDS011;5823;50.588;8.462;2023-03-19T13:59:38;0.10;;;0.10;;
11533;SDS011;5823;50.588;8.462;2023-03-19T14:04:48;0.10;;;0.10;;
11533;SDS011;5823;50.588;8.462;2023-03-19T14:07:16;0.57;;;0.20;;
11533;SDS011;5823;50.588;8.462;2023-03-19T14:09:44;0.10;;;0.10;;
11533;SDS011;5823;50.588;8.462;2023-03-19T14:12:24;0.00;;;0.00;;
11533;SDS011;5823;50.588;8.462;2023-03-19T14:14:54;0.00;;;0.00;;
11533;SDS011;5823;50.588;8.462;2023-03-19T14:17:23;0.00;;;0.00;;
11533;SDS011;5823;50.588;8.462;2023-03-19T14:19:51;0.00;;;0.00;;
11533;SDS011;5823;50.588;8.462;2023-03-19T14:22:19;0.00;;;0.00;;
11533;SDS011;5823;50.588;8.462;2023-03-19T14:24:55;0.10;;;0.10;;
11533;SDS011;5823;50.588;8.462;2023-03-19T14:27:29;0.00;;;0.00;;
11533;SDS011;5823;50.588;8.462;2023-03-19T14:29:57;0.10;;;0.10;;
11533;SDS011;5823;50.588;8.462;2023-03-19T14:32:26;0.05;;;0.05;;
11533;SDS011;5823;50.588;8.462;2023-03-19T14:34:55;0.05;;;0.05;;
11533;SDS011;5823;50.588;8.462;2023-03-19T14:37:22;0.10;;;0.10;;
11533;SDS011;5823;50.588;8.462;2023-03-19T14:39:51;0.00;;;0.00;;
11533;SDS011;5823;50.588;8.462;2023-03-19T14:42:20;0.03;;;0.03;;
11533;SDS011;5823;50.588;8.462;2023-03-19T14:47:39;0.00;;;0.00;;
11533;SDS011;5823;50.588;8.462;2023-03-19T14:50:18;0.10;;;0.10;;
11533;SDS011;5823;50.588;8.462;2023-03-19T14:52:50;0.10;;;0.10;;
11533;SDS011;5823;50.588;8.462;2023-03-19T14:55:17;0.10;;;0.10;;
11533;SDS011;5823;50.588;8.462;2023-03-19T14:57:44;0.10;;;0.10;;
11533;SDS011;5823;50.588;8.462;2023-03-19T15:00:12;0.10;;;0.10;;
11533;SDS011;5823;50.588;8.462;2023-03-19T15:02:40;0.00;;;0.00;;
11533;SDS011;5823;50.588;8.462;2023-03-19T15:05:08;0.08;;;0.08;;
11533;SDS011;5823;50.588;8.462;2023-03-19T15:07:37;0.15;;;0.15;;
11533;SDS011;5823;50.588;8.462;2023-03-19T15:10:05;0.17;;;0.10;;
11533;SDS011;5823;50.588;8.462;2023-03-19T15:12:47;0.10;;;0.10;;
11533;SDS011;5823;50.588;8.462;2023-03-19T15:15:16;0.10;;;0.10;;
11533;SDS011;5823;50.588;8.462;2023-03-19T15:17:45;0.15;;;0.15;;